Vitoria, Spain
Current Conditions -  °F | °C
As of 6:30 AM on Thursday 27 Nov 2014 (Local Time) from LEVT Reporting Station
Moderate Fog Moderate Fog  
Wind Chill: 43°   Ceiling: 200
Heat Index: 43°   Visibility: 0.25mi
Dew Point: 43°   Wind: 1mph
Humidity: 100%   Direction: NA
Pressure: 29.68"   Gusts: NA
Location:  42.85°N, 2.67°W
Report Text: LEVT 270530Z VRB01KT 0400 R04/0650N FG VV002 06/06 Q1005
Loading
Personal Weather Stations






























Interactive Weather Map New forecast layout! Learn more

10-Day Weather Forecast

Advertisements
Track Severe Weather on mobile